Time;durP1;ratioP1;P1;durP2;ratioP2;P2;SDS_P1;SDS_P2;PMS_P1;PMS_P2;Temp;Humidity;BMP_temperature;BMP_pressure;BME280_temperature;BME280_humidity;BME280_pressure;Samples;Min_cycle;Max_cycle;Signal;HPM_P1;HPM_P2
2021/08/31 00:01:20;;;;;;;6.80;5.18;;;19.70;63.10;;;;;;5066223;28;20173;-78
2021/08/31 00:03:47;;;;;;;8.05;5.65;;;19.70;62.20;;;;;;5065542;28;20190;-78
2021/08/31 00:06:13;;;;;;;6.70;5.07;;;19.70;62.20;;;;;;5049078;28;20161;-79
2021/08/31 00:08:38;;;;;;;7.75;5.22;;;19.70;62.20;;;;;;5065578;28;20154;-80
2021/08/31 00:11:06;;;;;;;7.30;5.18;;;19.70;62.10;;;;;;5065223;28;20236;-79
2021/08/31 00:13:33;;;;;;;7.30;4.88;;;19.70;62.20;;;;;;5064636;28;20224;-79
2021/08/31 00:16:02;;;;;;;7.63;5.30;;;19.70;62.20;;;;;;5048049;28;20236;-78
2021/08/31 00:18:29;;;;;;;7.63;5.78;;;19.70;62.10;;;;;;5048166;28;20186;-78
2021/08/31 00:20:57;;;;;;;7.82;5.20;;;19.70;62.10;;;;;;5064372;28;20313;-78
2021/08/31 00:23:24;;;;;;;8.02;5.68;;;19.70;62.10;;;;;;5064256;28;20352;-79
2021/08/31 00:25:56;;;;;;;7.03;4.95;;;19.70;62.20;;;;;;5081560;28;20192;-78
2021/08/31 00:28:22;;;;;;;8.10;5.38;;;19.70;62.10;;;;;;5081760;28;20178;-78
2021/08/31 00:30:48;;;;;;;7.32;5.25;;;19.70;62.10;;;;;;5064659;28;20158;-78
2021/08/31 00:33:15;;;;;;;7.72;5.18;;;19.70;62.10;;;;;;5065005;28;20269;-79
2021/08/31 00:35:42;;;;;;;7.13;5.60;;;19.70;62.20;;;;;;5065981;28;20150;-78
2021/08/31 00:38:08;;;;;;;7.10;5.18;;;19.70;62.30;;;;;;5065109;28;20248;-78
2021/08/31 00:40:34;;;;;;;7.70;5.40;;;19.70;62.20;;;;;;5049241;28;20181;-78
2021/08/31 00:43:08;;;;;;;8.48;5.82;;;19.70;62.20;;;;;;5048379;28;20276;-80
2021/08/31 00:45:34;;;;;;;6.93;5.15;;;19.70;62.10;;;;;;5066008;28;20178;-79
2021/08/31 00:48:00;;;;;;;6.57;4.88;;;19.70;62.20;;;;;;5064658;28;20155;-78
2021/08/31 00:50:28;;;;;;;7.55;5.22;;;19.70;63.00;;;;;;5063923;28;20165;-79
2021/08/31 00:52:57;;;;;;;7.10;5.45;;;19.70;62.20;;;;;;5048090;28;20277;-78
2021/08/31 00:55:26;;;;;;;7.05;4.80;;;19.70;62.20;;;;;;5064633;28;20587;-78
2021/08/31 00:57:57;;;;;;;6.80;5.05;;;19.70;62.20;;;;;;5047795;28;20189;-78
2021/08/31 01:00:25;;;;;;;7.05;5.18;;;19.70;62.30;;;;;;5063803;28;20201;-78
2021/08/31 01:02:54;;;;;;;8.45;6.05;;;19.80;62.30;;;;;;5063162;28;20185;-79
2021/08/31 01:05:25;;;;;;;6.68;4.88;;;19.70;62.20;;;;;;5084063;28;20186;-79
2021/08/31 01:07:53;;;;;;;7.45;5.40;;;19.70;62.30;;;;;;5068161;28;20207;-78
2021/08/31 01:10:20;;;;;;;7.13;5.30;;;19.70;62.20;;;;;;5068383;28;20228;-78
2021/08/31 01:12:46;;;;;;;7.65;5.50;;;19.70;62.30;;;;;;5068432;28;20217;-79
2021/08/31 01:15:16;;;;;;;7.15;5.10;;;19.70;62.30;;;;;;5069111;28;20169;-78
2021/08/31 01:17:42;;;;;;;6.50;4.95;;;19.70;62.20;;;;;;5069457;28;20208;-78
2021/08/31 01:20:08;;;;;;;7.57;5.50;;;19.70;62.30;;;;;;5068697;28;20617;-80
2021/08/31 01:22:34;;;;;;;7.30;5.25;;;19.70;62.20;;;;;;5068941;28;20569;-78
2021/08/31 01:25:01;;;;;;;7.28;5.30;;;19.70;62.20;;;;;;5067965;28;20245;-78
2021/08/31 01:27:30;;;;;;;6.88;4.85;;;19.70;62.10;;;;;;5052243;28;20171;-81
2021/08/31 01:30:02;;;;;;;7.82;5.65;;;19.70;62.20;;;;;;5068211;28;20189;-79
2021/08/31 01:32:28;;;;;;;6.57;5.15;;;19.70;62.30;;;;;;5068397;28;20205;-78
2021/08/31 01:34:55;;;;;;;7.07;4.97;;;19.70;62.30;;;;;;5069096;28;20659;-78
2021/08/31 01:37:24;;;;;;;7.78;5.60;;;19.70;62.30;;;;;;5068230;28;20191;-77
2021/08/31 01:39:51;;;;;;;7.82;5.60;;;19.70;62.30;;;;;;5084561;28;20181;-77
2021/08/31 01:42:25;;;;;;;6.90;5.32;;;19.60;62.20;;;;;;5070283;28;20162;-79
2021/08/31 01:44:56;;;;;;;9.23;5.70;;;19.70;62.20;;;;;;5067681;28;20186;-77
2021/08/31 01:47:22;;;;;;;7.13;4.97;;;19.60;62.20;;;;;;5067605;28;20566;-77
2021/08/31 01:49:48;;;;;;;6.95;5.00;;;19.70;62.30;;;;;;5051401;28;20162;-77
2021/08/31 01:52:14;;;;;;;7.75;5.35;;;19.60;62.30;;;;;;5068794;28;20204;-78
2021/08/31 01:54:43;;;;;;;8.70;5.32;;;19.70;62.30;;;;;;5068528;28;20172;-78
2021/08/31 01:57:16;;;;;;;7.53;5.43;;;19.60;62.30;;;;;;5051689;28;20641;-79
2021/08/31 01:59:41;;;;;;;8.02;5.47;;;19.70;62.30;;;;;;5068158;28;20164;-77
2021/08/31 02:02:11;;;;;;;8.13;5.57;;;19.70;62.30;;;;;;5068366;28;20181;-78
2021/08/31 02:04:37;;;;;;;6.78;5.25;;;19.60;62.30;;;;;;5051718;28;20182;-78
2021/08/31 02:07:03;;;;;;;7.85;5.60;;;19.70;62.30;;;;;;5051280;28;20165;-80
2021/08/31 02:09:28;;;;;;;7.90;5.60;;;19.70;62.30;;;;;;5051096;28;20272;-78
2021/08/31 02:12:00;;;;;;;6.38;4.82;;;19.70;62.30;;;;;;5068455;28;20193;-79
2021/08/31 02:14:30;;;;;;;6.90;5.30;;;19.70;62.30;;;;;;5066609;28;20174;-78
2021/08/31 02:16:57;;;;;;;7.55;4.97;;;19.70;62.40;;;;;;5066825;28;20598;-78
2021/08/31 02:19:27;;;;;;;8.15;5.68;;;19.70;62.40;;;;;;5066457;28;20205;-77
2021/08/31 02:21:54;;;;;;;7.22;5.28;;;19.70;62.50;;;;;;5066965;28;20186;-78
2021/08/31 02:24:24;;;;;;;7.65;5.50;;;19.70;62.40;;;;;;5066467;28;20654;-77
2021/08/31 02:26:50;;;;;;;7.95;5.68;;;19.70;62.50;;;;;;5082843;28;20185;-78
2021/08/31 02:29:17;;;;;;;7.57;5.40;;;19.70;62.40;;;;;;5067915;28;20624;-79
2021/08/31 02:31:43;;;;;;;7.80;5.60;;;19.60;62.30;;;;;;5067469;28;20150;-78
2021/08/31 02:34:08;;;;;;;9.45;5.68;;;19.70;62.40;;;;;;5067264;28;20200;-78
2021/08/31 02:36:38;;;;;;;7.88;5.97;;;19.70;62.50;;;;;;5050993;28;20173;-79
2021/08/31 02:39:09;;;;;;;6.75;4.85;;;19.70;62.40;;;;;;5050742;28;20178;-78
2021/08/31 02:41:37;;;;;;;6.47;4.78;;;19.60;62.40;;;;;;5049931;28;20166;-78
2021/08/31 02:44:06;;;;;;;6.65;5.25;;;19.60;62.30;;;;;;5067151;28;20277;-80
2021/08/31 02:46:35;;;;;;;7.15;5.22;;;19.70;62.50;;;;;;5083152;28;20186;-77
2021/08/31 02:49:06;;;;;;;7.10;5.07;;;19.70;62.40;;;;;;5083368;28;20224;-78
2021/08/31 02:51:37;;;;;;;8.07;5.60;;;19.70;62.40;;;;;;5066005;28;20201;-79
2021/08/31 02:54:06;;;;;;;7.00;5.30;;;19.60;62.40;;;;;;5083363;28;20183;-77
2021/08/31 02:56:35;;;;;;;8.48;5.40;;;19.60;62.40;;;;;;5050995;28;20629;-77
2021/08/31 02:59:06;;;;;;;7.95;5.72;;;19.60;62.50;;;;;;5049672;28;20177;-77
2021/08/31 03:01:37;;;;;;;7.57;5.18;;;19.60;62.50;;;;;;5066449;28;20213;-78
2021/08/31 03:04:06;;;;;;;7.28;5.10;;;19.60;62.50;;;;;;5066346;28;20186;-79
2021/08/31 03:06:34;;;;;;;7.78;5.32;;;19.60;62.60;;;;;;5082723;28;20304;-78
2021/08/31 03:09:02;;;;;;;7.82;5.55;;;19.60;62.50;;;;;;5066860;28;20244;-78
2021/08/31 03:11:33;;;;;;;7.63;5.53;;;19.60;62.60;;;;;;5082527;28;20226;-78
2021/08/31 03:14:03;;;;;;;6.93;4.95;;;19.60;62.60;;;;;;5082751;28;20202;-78
2021/08/31 03:16:31;;;;;;;7.20;5.10;;;19.50;62.60;;;;;;5066162;28;20209;-78
2021/08/31 03:18:59;;;;;;;7.40;5.30;;;19.50;62.60;;;;;;5082664;28;20185;-78
2021/08/31 03:21:29;;;;;;;7.45;5.22;;;19.60;63.40;;;;;;5082439;28;20174;-78
2021/08/31 03:24:00;;;;;;;8.05;5.63;;;19.60;62.60;;;;;;5082621;28;20554;-77
2021/08/31 03:26:27;;;;;;;7.68;5.35;;;19.60;62.60;;;;;;5064229;28;20265;-79
2021/08/31 03:28:55;;;;;;;7.55;5.72;;;19.60;62.70;;;;;;5065708;28;20182;-77
2021/08/31 03:31:23;;;;;;;7.13;4.97;;;19.60;62.70;;;;;;5082656;28;20178;-78
2021/08/31 03:33:50;;;;;;;7.72;5.30;;;19.60;62.70;;;;;;5082209;28;20763;-77
2021/08/31 03:36:18;;;;;;;7.55;5.28;;;19.60;62.70;;;;;;5082089;28;20268;-78
2021/08/31 03:38:45;;;;;;;7.45;5.75;;;19.50;62.70;;;;;;5082845;28;20178;-77
2021/08/31 03:41:11;;;;;;;7.43;5.20;;;19.50;62.70;;;;;;5082232;28;20591;-78
2021/08/31 03:43:44;;;;;;;6.95;5.32;;;19.50;62.80;;;;;;5066040;28;20154;-78
2021/08/31 03:46:11;;;;;;;7.00;5.35;;;19.60;62.80;;;;;;5081778;28;20178;-78
2021/08/31 03:48:39;;;;;;;8.10;5.40;;;19.60;62.80;;;;;;5049739;28;20169;-78
2021/08/31 03:51:06;;;;;;;8.77;5.68;;;19.60;62.70;;;;;;5081885;28;20193;-79
2021/08/31 03:53:37;;;;;;;7.43;5.22;;;19.60;62.90;;;;;;5064726;28;20233;-77
2021/08/31 03:56:05;;;;;;;7.50;5.35;;;19.50;62.80;;;;;;5082058;28;20190;-81
2021/08/31 03:58:35;;;;;;;6.80;5.30;;;19.60;62.90;;;;;;5065227;28;20191;-78
2021/08/31 04:01:00;;;;;;;7.65;5.25;;;19.50;62.70;;;;;;5066038;28;20199;-78
2021/08/31 04:03:26;;;;;;;6.95;5.10;;;19.50;62.70;;;;;;5064987;28;20162;-78
2021/08/31 04:05:53;;;;;;;6.82;5.43;;;19.50;62.70;;;;;;5066469;28;20154;-79
2021/08/31 04:08:23;;;;;;;7.43;5.63;;;19.50;62.70;;;;;;5048534;28;20273;-78
2021/08/31 04:10:52;;;;;;;7.80;5.70;;;19.50;62.90;;;;;;5064337;28;20237;-77
2021/08/31 04:13:23;;;;;;;7.28;5.20;;;19.50;62.80;;;;;;5081650;28;20232;-78
2021/08/31 04:15:52;;;;;;;7.25;5.43;;;19.50;62.80;;;;;;5081758;28;20265;-77
2021/08/31 04:18:22;;;;;;;8.75;5.57;;;19.60;63.60;;;;;;5081514;28;20398;-78
2021/08/31 04:20:51;;;;;;;7.20;5.20;;;19.60;62.80;;;;;;5082148;28;20186;-78
2021/08/31 04:23:19;;;;;;;7.43;5.40;;;19.50;62.80;;;;;;5064725;28;20775;-78
2021/08/31 04:25:48;;;;;;;7.55;5.18;;;19.60;62.70;;;;;;5080811;28;20231;-78
2021/08/31 04:28:18;;;;;;;7.10;5.43;;;19.60;62.70;;;;;;5063974;28;20178;-78
2021/08/31 04:30:46;;;;;;;8.10;5.30;;;19.50;62.50;;;;;;5064375;28;20185;-77
2021/08/31 04:33:12;;;;;;;7.90;5.13;;;19.50;62.60;;;;;;5081090;28;20210;-78
2021/08/31 04:35:38;;;;;;;7.18;5.05;;;19.50;62.60;;;;;;5063786;28;20212;-79
2021/08/31 04:38:04;;;;;;;6.85;5.13;;;19.50;62.50;;;;;;5065912;28;20237;-79
2021/08/31 04:40:32;;;;;;;8.02;5.65;;;19.60;62.60;;;;;;5065215;28;20150;-79
2021/08/31 04:43:03;;;;;;;7.88;5.68;;;19.50;62.40;;;;;;5064856;28;20181;-78
2021/08/31 04:45:31;;;;;;;7.07;5.07;;;19.60;62.40;;;;;;5064487;28;20170;-79
2021/08/31 04:48:02;;;;;;;6.25;4.50;;;19.50;62.20;;;;;;5066241;28;20241;-79
2021/08/31 04:50:29;;;;;;;7.22;5.45;;;19.60;62.10;;;;;;5064314;28;20190;-78
2021/08/31 04:52:56;;;;;;;7.60;5.00;;;19.60;62.00;;;;;;5064064;28;20216;-78
2021/08/31 04:55:23;;;;;;;7.13;5.22;;;19.60;61.80;;;;;;5064305;28;20182;-78
2021/08/31 04:57:50;;;;;;;6.78;4.82;;;19.50;61.70;;;;;;5064015;28;20213;-80
2021/08/31 05:00:17;;;;;;;7.65;5.38;;;19.60;61.80;;;;;;5047629;28;20182;-79
2021/08/31 05:02:44;;;;;;;8.30;5.32;;;19.60;61.60;;;;;;5080338;28;20277;-78
2021/08/31 05:05:10;;;;;;;8.68;5.45;;;19.50;61.60;;;;;;5079828;28;20690;-79
2021/08/31 05:07:38;;;;;;;7.78;5.25;;;19.50;61.50;;;;;;5065183;28;20155;-78
2021/08/31 05:10:06;;;;;;;7.32;5.00;;;19.50;61.40;;;;;;5064582;28;20228;-78
2021/08/31 05:12:41;;;;;;;6.15;4.53;;;19.50;61.40;;;;;;5065843;28;20200;-77
2021/08/31 05:15:11;;;;;;;7.40;5.30;;;19.60;61.10;;;;;;5047643;28;20189;-78
2021/08/31 05:17:40;;;;;;;5.78;4.50;;;19.60;61.20;;;;;;5064502;28;20231;-80
2021/08/31 05:20:10;;;;;;;7.18;4.88;;;19.60;60.90;;;;;;5063623;28;20216;-78
2021/08/31 05:22:43;;;;;;;7.13;5.05;;;19.60;60.90;;;;;;5080832;28;20182;-78
2021/08/31 05:25:14;;;;;;;6.95;5.00;;;19.70;60.90;;;;;;5063715;28;20202;-78
2021/08/31 05:27:39;;;;;;;7.60;5.18;;;19.70;61.00;;;;;;5080728;28;20178;-79
2021/08/31 05:30:12;;;;;;;8.32;5.45;;;19.70;61.00;;;;;;5065636;28;20185;-79
2021/08/31 05:32:37;;;;;;;6.57;4.90;;;19.70;60.90;;;;;;5065564;28;20186;-78
2021/08/31 05:35:03;;;;;;;7.05;4.78;;;19.70;60.80;;;;;;5065625;28;20154;-80
2021/08/31 05:37:29;;;;;;;8.32;5.22;;;19.70;60.90;;;;;;5047568;28;20166;-79
2021/08/31 05:39:55;;;;;;;7.38;5.13;;;19.70;60.90;;;;;;5064167;28;20158;-77
2021/08/31 05:42:21;;;;;;;7.10;5.07;;;19.70;60.90;;;;;;5063255;28;20181;-80
2021/08/31 05:44:47;;;;;;;8.07;5.18;;;19.70;61.00;;;;;;5046965;28;20185;-78
2021/08/31 05:47:14;;;;;;;6.50;4.68;;;19.70;61.00;;;;;;5047978;28;20181;-78
2021/08/31 05:49:42;;;;;;;7.55;5.60;;;19.70;61.10;;;;;;5047987;28;20151;-78
2021/08/31 05:52:07;;;;;;;6.82;5.30;;;19.70;61.00;;;;;;5049418;28;20297;-78
2021/08/31 05:54:40;;;;;;;7.03;5.15;;;19.80;61.00;;;;;;5067026;28;20157;-80
2021/08/31 05:57:10;;;;;;;7.32;5.20;;;19.80;61.10;;;;;;5066184;28;20178;-78
2021/08/31 05:59:39;;;;;;;7.88;5.18;;;19.80;61.20;;;;;;5067797;28;20221;-79
2021/08/31 06:02:08;;;;;;;7.18;4.85;;;19.80;61.40;;;;;;5047169;28;20197;-80
2021/08/31 06:04:38;;;;;;;6.40;4.97;;;19.80;61.50;;;;;;5030351;28;20175;-78
2021/08/31 06:07:05;;;;;;;7.13;5.15;;;19.80;61.40;;;;;;5047116;28;20503;-77
2021/08/31 06:09:31;;;;;;;7.05;4.90;;;19.80;62.00;;;;;;5030708;28;20173;-77
2021/08/31 06:11:58;;;;;;;6.93;5.03;;;19.80;62.30;;;;;;5014313;28;20289;-78
2021/08/31 06:14:30;;;;;;;7.22;5.05;;;19.80;61.80;;;;;;5031243;28;20183;-80
2021/08/31 06:16:56;;;;;;;7.47;4.78;;;19.80;62.00;;;;;;5045084;28;20214;-79
2021/08/31 06:19:23;;;;;;;7.28;5.00;;;19.90;61.90;;;;;;5048345;28;20166;-78
2021/08/31 06:21:51;;;;;;;6.75;4.80;;;19.90;62.50;;;;;;5048277;28;20201;-79
2021/08/31 06:24:21;;;;;;;7.90;5.00;;;19.90;61.40;;;;;;5048463;28;20214;-79
2021/08/31 06:26:47;;;;;;;6.80;4.70;;;19.90;61.50;;;;;;5046629;28;20163;-79
2021/08/31 06:29:13;;;;;;;6.80;5.07;;;19.90;61.80;;;;;;5030062;28;20158;-79
2021/08/31 06:31:42;;;;;;;7.47;5.05;;;19.90;61.50;;;;;;5030606;28;20158;-78
2021/08/31 06:34:08;;;;;;;6.32;4.88;;;20.00;61.40;;;;;;5047445;28;20197;-78
2021/08/31 06:36:34;;;;;;;7.07;5.63;;;19.90;61.20;;;;;;5031410;28;20238;-79
2021/08/31 06:38:59;;;;;;;6.18;4.47;;;19.90;61.50;;;;;;5047517;28;20219;-77
2021/08/31 06:41:25;;;;;;;6.10;4.53;;;19.90;61.50;;;;;;5028423;28;20553;-78
2021/08/31 06:43:52;;;;;;;7.60;5.38;;;20.00;61.20;;;;;;5061714;28;20171;-78
2021/08/31 06:46:19;;;;;;;6.70;4.68;;;20.00;61.10;;;;;;5029587;28;20181;-79
2021/08/31 06:48:45;;;;;;;6.93;5.00;;;20.00;61.00;;;;;;5029377;28;20155;-81
2021/08/31 06:51:14;;;;;;;6.68;4.90;;;20.00;61.00;;;;;;5047211;28;20285;-78
2021/08/31 06:53:43;;;;;;;6.82;5.13;;;20.00;61.00;;;;;;5046272;28;20206;-80
2021/08/31 06:56:13;;;;;;;6.30;4.70;;;19.90;61.00;;;;;;5029384;28;20197;-79
2021/08/31 06:58:42;;;;;;;7.85;5.13;;;19.90;61.10;;;;;;5044952;28;20235;-78
2021/08/31 07:01:12;;;;;;;6.57;4.93;;;20.00;60.90;;;;;;5043248;28;20179;-78
2021/08/31 07:03:41;;;;;;;8.15;5.32;;;19.90;61.60;;;;;;5044044;28;20186;-79
2021/08/31 07:06:11;;;;;;;7.05;4.65;;;19.90;61.00;;;;;;5044537;28;20635;-81
2021/08/31 07:08:41;;;;;;;6.32;4.53;;;19.90;61.10;;;;;;5027392;28;20268;-80
2021/08/31 07:11:12;;;;;;;6.72;4.78;;;19.90;60.90;;;;;;5023973;28;20231;-80
2021/08/31 07:13:45;;;;;;;5.57;4.40;;;19.90;61.10;;;;;;5027695;28;20225;-79
2021/08/31 07:16:15;;;;;;;6.43;4.75;;;19.90;60.90;;;;;;5028635;28;20190;-78
2021/08/31 07:18:41;;;;;;;6.68;4.70;;;19.90;61.00;;;;;;5037501;28;20221;-81
2021/08/31 07:21:07;;;;;;;4.90;4.00;;;19.80;61.20;;;;;;5065764;28;20162;-79
2021/08/31 07:23:33;;;;;;;5.97;4.25;;;19.80;61.20;;;;;;5047843;28;20166;-78
2021/08/31 07:26:01;;;;;;;5.63;3.95;;;19.80;61.20;;;;;;5065170;28;20241;-80
2021/08/31 07:28:27;;;;;;;5.40;4.18;;;19.90;61.10;;;;;;5048408;28;20162;-79
2021/08/31 07:30:54;;;;;;;5.30;4.10;;;19.80;61.00;;;;;;5046323;28;20165;-78
2021/08/31 07:33:26;;;;;;;5.93;4.25;;;19.80;61.00;;;;;;5046901;28;20193;-78
2021/08/31 07:35:54;;;;;;;6.22;4.07;;;19.90;61.00;;;;;;5064172;28;20185;-79
2021/08/31 07:38:20;;;;;;;5.88;4.18;;;19.90;60.80;;;;;;5044888;28;20190;-81
2021/08/31 07:40:46;;;;;;;6.10;4.57;;;19.90;60.90;;;;;;5027154;28;20173;-81
2021/08/31 07:43:14;;;;;;;6.47;4.55;;;19.90;60.80;;;;;;5044379;28;20169;-82
2021/08/31 07:45:41;;;;;;;6.25;4.20;;;19.80;61.00;;;;;;5042430;28;20265;-78
2021/08/31 07:48:11;;;;;;;5.22;3.78;;;19.80;61.00;;;;;;5043236;28;20181;-79
2021/08/31 07:50:38;;;;;;;5.57;4.30;;;19.90;61.00;;;;;;5042312;28;20182;-80
2021/08/31 07:53:04;;;;;;;5.03;3.60;;;19.80;60.90;;;;;;5040910;28;20183;-80
2021/08/31 07:55:33;;;;;;;6.03;4.07;;;19.90;61.00;;;;;;5041979;28;20174;-80
2021/08/31 07:57:59;;;;;;;5.38;3.88;;;19.80;61.00;;;;;;5057137;28;20249;-78
2021/08/31 08:00:26;;;;;;;5.00;3.85;;;19.80;61.00;;;;;;5043589;28;20686;-81
2021/08/31 08:02:53;;;;;;;5.63;4.20;;;19.80;61.00;;;;;;5040202;28;20151;-78
2021/08/31 08:05:19;;;;;;;6.18;4.18;;;19.90;60.70;;;;;;5039644;28;20221;-78
2021/08/31 08:07:44;;;;;;;6.43;4.55;;;19.90;60.80;;;;;;5041348;28;20174;-81
2021/08/31 08:10:10;;;;;;;5.05;3.63;;;19.90;61.00;;;;;;5039692;28;20225;-79
2021/08/31 08:12:37;;;;;;;4.60;3.50;;;19.90;61.00;;;;;;5027938;28;20195;-78
2021/08/31 08:15:04;;;;;;;5.47;3.95;;;19.90;60.90;;;;;;5038886;28;20173;-80
2021/08/31 08:17:35;;;;;;;4.88;3.70;;;19.90;60.80;;;;;;5019196;28;20163;-83
2021/08/31 08:20:00;;;;;;;5.65;3.83;;;19.90;60.70;;;;;;5035615;28;20182;-81
2021/08/31 08:22:29;;;;;;;4.75;3.78;;;19.90;60.90;;;;;;5035547;28;20181;-80
2021/08/31 08:24:58;;;;;;;6.97;4.05;;;19.80;60.90;;;;;;5037441;28;20190;-83
2021/08/31 08:27:26;;;;;;;5.13;3.80;;;19.90;61.00;;;;;;5017083;28;20189;-82
2021/08/31 08:29:52;;;;;;;6.57;4.15;;;19.90;60.90;;;;;;5037131;28;20593;-80
2021/08/31 08:32:18;;;;;;;6.25;3.92;;;19.90;60.70;;;;;;5071024;28;20246;-81
2021/08/31 08:34:43;;;;;;;4.97;3.53;;;20.00;60.40;;;;;;5056564;28;20635;-81
2021/08/31 08:37:10;;;;;;;5.00;3.80;;;20.00;60.50;;;;;;5055597;28;20199;-82
2021/08/31 08:39:36;;;;;;;4.63;3.65;;;19.90;60.50;;;;;;5072440;28;20248;-84
2021/08/31 08:42:04;;;;;;;5.10;3.78;;;19.90;60.60;;;;;;5056041;28;20233;-79
2021/08/31 08:44:30;;;;;;;4.70;3.78;;;19.90;60.70;;;;;;5055875;28;20643;-81
2021/08/31 08:46:56;;;;;;;6.10;3.92;;;19.90;60.70;;;;;;5055768;28;20157;-81
2021/08/31 08:49:23;;;;;;;5.65;3.45;;;19.90;60.90;;;;;;5071439;28;20164;-83
2021/08/31 08:51:52;;;;;;;5.07;3.80;;;19.90;60.80;;;;;;5053499;28;20176;-80
2021/08/31 08:54:17;;;;;;;6.47;4.00;;;19.90;61.50;;;;;;5072031;28;20173;-82
2021/08/31 08:56:43;;;;;;;5.28;3.75;;;19.90;60.60;;;;;;5072991;28;20167;-83
2021/08/31 08:59:11;;;;;;;5.05;3.70;;;19.90;60.50;;;;;;5055250;28;20541;-81
2021/08/31 09:01:44;;;;;;;5.43;3.63;;;19.90;60.30;;;;;;5070919;28;20181;-82
2021/08/31 09:04:11;;;;;;;4.68;3.75;;;20.00;60.30;;;;;;5037932;28;20230;-80
2021/08/31 09:06:39;;;;;;;5.30;3.85;;;20.00;60.00;;;;;;5071417;28;20527;-81
2021/08/31 09:09:07;;;;;;;5.10;3.42;;;19.90;60.00;;;;;;5054609;28;20698;-80
2021/08/31 09:11:37;;;;;;;4.68;3.72;;;19.90;60.00;;;;;;5054298;28;20227;-83
2021/08/31 09:14:22;;;;;;;4.70;3.50;;;20.00;60.00;;;;;;5038759;28;20221;-79
2021/08/31 09:16:57;;;;;;;4.68;3.78;;;20.00;59.60;;;;;;5038328;28;20177;-83
2021/08/31 09:19:40;;;;;;;4.60;3.70;;;20.00;59.90;;;;;;5056091;28;20176;-80
2021/08/31 09:22:20;;;;;;;5.53;3.67;;;19.80;59.80;;;;;;5071576;28;20159;-82
2021/08/31 09:25:01;;;;;;;4.90;3.90;;;19.90;59.60;;;;;;5072735;28;20288;-83
2021/08/31 09:27:38;;;;;;;4.82;3.80;;;20.00;59.60;;;;;;5059279;28;20183;-82
2021/08/31 09:30:22;;;;;;;4.68;3.38;;;20.00;59.70;;;;;;5076392;28;20670;-84
2021/08/31 09:33:01;;;;;;;5.57;3.88;;;20.00;59.60;;;;;;5076007;28;20181;-83
2021/08/31 09:35:31;;;;;;;5.93;3.75;;;19.90;59.50;;;;;;5058829;28;20153;-83
2021/08/31 09:37:59;;;;;;;4.65;3.55;;;19.90;59.40;;;;;;5076774;28;20177;-82
2021/08/31 09:40:29;;;;;;;5.18;3.53;;;19.90;59.40;;;;;;5075502;28;20191;-82
2021/08/31 09:43:05;;;;;;;4.53;3.50;;;19.90;59.40;;;;;;5059211;28;20641;-80
2021/08/31 09:45:34;;;;;;;4.53;3.30;;;19.90;59.30;;;;;;5075445;28;20164;-85
2021/08/31 09:48:00;;;;;;;5.50;3.17;;;20.00;59.20;;;;;;5058772;28;20181;-82
2021/08/31 09:50:31;;;;;;;5.05;3.53;;;20.00;58.90;;;;;;5058891;28;20197;-82
2021/08/31 09:53:13;;;;;;;5.10;3.72;;;19.90;59.10;;;;;;5076849;28;20185;-84
2021/08/31 09:55:40;;;;;;;5.00;3.53;;;20.00;59.10;;;;;;5075003;28;20146;-83
2021/08/31 09:58:09;;;;;;;4.85;3.55;;;20.00;58.80;;;;;;5057974;28;20162;-82
2021/08/31 10:00:36;;;;;;;4.20;3.40;;;20.00;58.90;;;;;;5074465;28;20181;-82
2021/08/31 10:03:02;;;;;;;4.30;3.38;;;20.00;58.60;;;;;;5076915;28;20677;-84
2021/08/31 10:05:28;;;;;;;5.50;3.38;;;20.00;58.90;;;;;;5076317;28;20153;-82
2021/08/31 10:07:55;;;;;;;4.75;3.70;;;20.00;58.60;;;;;;5075453;28;20295;-85
2021/08/31 10:10:21;;;;;;;4.72;3.42;;;20.10;58.90;;;;;;5075918;28;20669;-81
2021/08/31 10:12:47;;;;;;;5.13;3.30;;;20.00;58.80;;;;;;5074728;28;20262;-79
2021/08/31 10:15:13;;;;;;;4.20;3.22;;;20.00;58.50;;;;;;5076098;28;20157;-81
2021/08/31 10:17:39;;;;;;;4.38;3.40;;;20.00;58.50;;;;;;5075955;28;20627;-82
2021/08/31 10:20:05;;;;;;;4.95;3.55;;;20.00;58.30;;;;;;5075691;28;20169;-83
2021/08/31 10:22:31;;;;;;;5.43;3.80;;;20.10;58.60;;;;;;5075871;28;20686;-82
2021/08/31 10:25:15;;;;;;;4.55;3.60;;;20.00;58.70;;;;;;5075816;28;20207;-79
2021/08/31 10:27:43;;;;;;;5.32;3.63;;;19.90;58.60;;;;;;5053660;28;20232;-83
2021/08/31 10:30:26;;;;;;;4.25;3.40;;;19.90;58.50;;;;;;5053805;28;20189;-82
2021/08/31 10:32:54;;;;;;;4.28;3.10;;;20.00;58.40;;;;;;5053852;28;20213;-79
2021/08/31 10:35:54;;;;;;;5.68;3.38;;;20.00;58.40;;;;;;5029319;28;20199;-81
2021/08/31 10:38:40;;;;;;;4.63;3.70;;;20.00;58.30;;;;;;5018176;28;20193;-82
2021/08/31 10:41:36;;;;;;;3.72;3.05;;;20.00;58.40;;;;;;5000915;28;20704;-80
2021/08/31 10:44:03;;;;;;;3.80;2.95;;;19.90;58.40;;;;;;5033549;28;20202;-78
2021/08/31 10:46:59;;;;;;;4.05;3.38;;;19.90;58.30;;;;;;5001054;28;20179;-84
2021/08/31 10:49:30;;;;;;;5.43;3.42;;;19.90;58.30;;;;;;5016723;28;20191;-80
2021/08/31 10:52:07;;;;;;;4.43;3.28;;;20.00;58.20;;;;;;5016696;28;20186;-79
2021/08/31 10:54:50;;;;;;;4.03;3.40;;;20.00;58.20;;;;;;5033625;28;20159;-82
2021/08/31 10:57:43;;;;;;;4.60;3.50;;;19.90;58.20;;;;;;5033067;28;20182;-83
2021/08/31 11:00:48;;;;;;;3.97;3.22;;;19.90;58.10;;;;;;5055825;28;20257;-81
2021/08/31 11:03:29;;;;;;;3.55;2.75;;;20.00;58.10;;;;;;5043669;28;20154;-81
2021/08/31 11:05:54;;;;;;;4.55;3.60;;;20.00;58.00;;;;;;5055278;28;20185;-80
2021/08/31 11:08:22;;;;;;;4.63;3.50;;;20.10;58.00;;;;;;5053782;28;20166;-82
2021/08/31 11:10:49;;;;;;;4.20;3.15;;;19.90;57.80;;;;;;5052901;28;20264;-81
2021/08/31 11:13:20;;;;;;;4.53;3.53;;;20.00;58.20;;;;;;5053030;28;20308;-79
2021/08/31 11:15:48;;;;;;;4.30;3.10;;;20.00;57.90;;;;;;5036859;28;20186;-80
2021/08/31 11:18:19;;;;;;;3.97;3.10;;;20.00;57.70;;;;;;5020253;28;20182;-81
2021/08/31 11:20:46;;;;;;;3.63;3.00;;;19.90;57.50;;;;;;5052854;28;20208;-80
2021/08/31 11:23:17;;;;;;;4.00;3.25;;;20.00;57.40;;;;;;5054769;28;20197;-81
2021/08/31 11:25:45;;;;;;;4.57;3.10;;;20.00;57.40;;;;;;5055296;28;20174;-80
2021/08/31 11:28:13;;;;;;;4.00;2.90;;;20.00;57.30;;;;;;5055230;28;20636;-81
2021/08/31 11:31:12;;;;;;;3.50;3.00;;;20.10;57.20;;;;;;5058102;28;20166;-82
2021/08/31 11:33:42;;;;;;;4.05;3.17;;;20.10;57.00;;;;;;5035157;28;20210;-83
2021/08/31 11:36:09;;;;;;;3.97;3.03;;;20.10;56.90;;;;;;5034132;28;20167;-84
2021/08/31 11:38:36;;;;;;;3.80;3.03;;;20.10;57.00;;;;;;5017456;28;20159;-84
2021/08/31 11:41:21;;;;;;;3.95;3.00;;;20.10;57.10;;;;;;5016834;28;20664;-83
2021/08/31 11:43:56;;;;;;;4.57;3.38;;;20.10;57.10;;;;;;5033118;28;20178;-80
2021/08/31 11:46:25;;;;;;;3.95;3.20;;;20.10;57.10;;;;;;5054010;28;20229;-85
2021/08/31 11:49:07;;;;;;;3.50;2.92;;;20.00;57.00;;;;;;5052725;28;20154;-82
2021/08/31 11:51:32;;;;;;;5.45;3.10;;;20.10;56.90;;;;;;5053264;28;20157;-83
2021/08/31 11:54:05;;;;;;;4.45;3.05;;;20.10;57.10;;;;;;5036911;28;20599;-81
2021/08/31 11:56:31;;;;;;;3.58;2.88;;;20.00;57.10;;;;;;5037007;28;20150;-82
2021/08/31 11:59:01;;;;;;;3.15;2.70;;;20.00;57.10;;;;;;5039361;28;20158;-81
2021/08/31 12:01:29;;;;;;;3.72;3.00;;;20.00;57.10;;;;;;5028509;28;20245;-82
2021/08/31 12:03:55;;;;;;;3.97;3.28;;;19.90;57.80;;;;;;5044890;28;20159;-82
2021/08/31 12:06:24;;;;;;;4.00;3.15;;;19.90;57.20;;;;;;5040872;28;20162;-82
2021/08/31 12:08:50;;;;;;;3.75;3.08;;;19.90;57.10;;;;;;5023397;28;20186;-84
2021/08/31 12:11:17;;;;;;;3.63;2.80;;;19.90;57.10;;;;;;5038249;28;20236;-86
2021/08/31 12:13:44;;;;;;;3.90;3.15;;;19.90;57.10;;;;;;5044912;28;20208;-84
2021/08/31 12:16:12;;;;;;;3.95;3.13;;;19.90;57.00;;;;;;5023861;28;20173;-82
2021/08/31 12:18:37;;;;;;;3.38;2.90;;;19.90;56.90;;;;;;5059491;28;20150;-80
2021/08/31 12:21:21;;;;;;;3.40;2.65;;;20.00;56.80;;;;;;5023745;28;20241;-81
2021/08/31 12:23:50;;;;;;;3.30;2.75;;;19.90;56.70;;;;;;5039810;28;20248;-83
2021/08/31 12:26:34;;;;;;;3.55;2.90;;;20.00;56.70;;;;;;5043741;28;20146;-83
2021/08/31 12:29:03;;;;;;;3.85;2.80;;;20.00;56.50;;;;;;5046884;28;20166;-82
2021/08/31 12:31:31;;;;;;;3.72;2.85;;;20.00;56.40;;;;;;5025644;28;20177;-84
2021/08/31 12:33:58;;;;;;;3.78;2.90;;;20.00;56.30;;;;;;5026320;28;20201;-81
2021/08/31 12:36:33;;;;;;;3.30;2.70;;;20.00;56.30;;;;;;5045184;28;20257;-85
2021/08/31 12:39:07;;;;;;;3.63;3.00;;;20.00;56.20;;;;;;5062862;28;20211;-81
2021/08/31 12:41:40;;;;;;;3.97;3.08;;;20.00;56.00;;;;;;5047292;28;20170;-80
2021/08/31 12:44:17;;;;;;;4.78;2.83;;;20.00;56.10;;;;;;5057258;28;20182;-82
2021/08/31 12:46:45;;;;;;;3.55;2.78;;;20.00;56.10;;;;;;5039866;28;20161;-81
2021/08/31 12:49:16;;;;;;;3.20;2.67;;;20.00;55.90;;;;;;5056784;28;21684;-83
2021/08/31 12:51:53;;;;;;;3.75;2.83;;;19.90;56.00;;;;;;5036530;28;20596;-83
2021/08/31 12:54:31;;;;;;;3.70;2.70;;;19.90;56.10;;;;;;5020971;28;20194;-79
2021/08/31 12:57:02;;;;;;;3.53;3.00;;;19.90;56.00;;;;;;5005195;28;20193;-78
2021/08/31 12:59:42;;;;;;;3.47;2.92;;;20.00;56.00;;;;;;5027945;28;20179;-78